sensor_id;sensor_type;location;lat;lon;timestamp;temperature;humidity
12948;DHT22;6539;49.476;8.484;2022-08-21T00:02:56;24.10;99.20
12948;DHT22;6539;49.476;8.484;2022-08-21T00:05:29;24.10;99.20
12948;DHT22;6539;49.476;8.484;2022-08-21T00:07:56;24.10;99.50
12948;DHT22;6539;49.476;8.484;2022-08-21T00:10:22;24.00;99.80
12948;DHT22;6539;49.476;8.484;2022-08-21T00:12:48;23.90;99.90
12948;DHT22;6539;49.476;8.484;2022-08-21T00:15:19;23.90;99.90
12948;DHT22;6539;49.476;8.484;2022-08-21T00:17:47;23.90;99.90
12948;DHT22;6539;49.476;8.484;2022-08-21T00:20:14;23.90;99.90
12948;DHT22;6539;49.476;8.484;2022-08-21T00:22:44;23.80;99.90
12948;DHT22;6539;49.476;8.484;2022-08-21T00:25:12;23.80;99.90
12948;DHT22;6539;49.476;8.484;2022-08-21T00:27:42;23.70;99.90
12948;DHT22;6539;49.476;8.484;2022-08-21T00:30:11;23.70;99.90
12948;DHT22;6539;49.476;8.484;2022-08-21T00:32:39;23.40;99.90
12948;DHT22;6539;49.476;8.484;2022-08-21T00:35:12;23.30;99.90
12948;DHT22;6539;49.476;8.484;2022-08-21T00:37:41;23.20;99.90
12948;DHT22;6539;49.476;8.484;2022-08-21T00:40:12;23.20;99.90
12948;DHT22;6539;49.476;8.484;2022-08-21T00:42:40;23.20;99.90
12948;DHT22;6539;49.476;8.484;2022-08-21T00:45:12;23.20;99.90
12948;DHT22;6539;49.476;8.484;2022-08-21T00:47:40;23.20;99.90
12948;DHT22;6539;49.476;8.484;2022-08-21T00:50:10;23.20;99.90
12948;DHT22;6539;49.476;8.484;2022-08-21T00:52:37;23.10;99.90
12948;DHT22;6539;49.476;8.484;2022-08-21T00:55:07;23.10;99.90
12948;DHT22;6539;49.476;8.484;2022-08-21T00:57:43;23.10;99.90
12948;DHT22;6539;49.476;8.484;2022-08-21T01:00:18;23.10;99.90
12948;DHT22;6539;49.476;8.484;2022-08-21T01:02:48;23.10;99.90
12948;DHT22;6539;49.476;8.484;2022-08-21T01:05:14;23.10;99.90
12948;DHT22;6539;49.476;8.484;2022-08-21T01:07:42;23.10;99.90
12948;DHT22;6539;49.476;8.484;2022-08-21T01:10:10;23.10;99.90
12948;DHT22;6539;49.476;8.484;2022-08-21T01:12:40;23.00;99.90
12948;DHT22;6539;49.476;8.484;2022-08-21T01:15:10;22.90;99.90
12948;DHT22;6539;49.476;8.484;2022-08-21T01:17:38;22.40;99.90
12948;DHT22;6539;49.476;8.484;2022-08-21T01:20:08;22.40;99.90
12948;DHT22;6539;49.476;8.484;2022-08-21T01:22:36;22.30;99.90
12948;DHT22;6539;49.476;8.484;2022-08-21T01:25:04;22.40;99.90
12948;DHT22;6539;49.476;8.484;2022-08-21T01:27:32;22.50;99.90
12948;DHT22;6539;49.476;8.484;2022-08-21T01:32:41;22.40;99.90
12948;DHT22;6539;49.476;8.484;2022-08-21T01:35:08;22.50;99.90
12948;DHT22;6539;49.476;8.484;2022-08-21T01:37:35;22.50;99.90
12948;DHT22;6539;49.476;8.484;2022-08-21T01:40:05;22.40;99.90
12948;DHT22;6539;49.476;8.484;2022-08-21T01:42:34;22.30;99.90
12948;DHT22;6539;49.476;8.484;2022-08-21T01:45:00;22.30;99.90
12948;DHT22;6539;49.476;8.484;2022-08-21T01:47:28;22.30;99.90
12948;DHT22;6539;49.476;8.484;2022-08-21T01:49:54;22.30;99.90
12948;DHT22;6539;49.476;8.484;2022-08-21T01:52:20;22.30;99.90
12948;DHT22;6539;49.476;8.484;2022-08-21T01:54:46;22.30;99.90
12948;DHT22;6539;49.476;8.484;2022-08-21T01:57:12;22.30;99.90
12948;DHT22;6539;49.476;8.484;2022-08-21T01:59:41;22.30;99.90
12948;DHT22;6539;49.476;8.484;2022-08-21T02:02:07;22.20;99.90
12948;DHT22;6539;49.476;8.484;2022-08-21T02:04:35;22.20;99.90
12948;DHT22;6539;49.476;8.484;2022-08-21T02:07:01;22.20;99.90
12948;DHT22;6539;49.476;8.484;2022-08-21T02:09:27;22.20;99.90
12948;DHT22;6539;49.476;8.484;2022-08-21T02:11:53;22.20;99.90
12948;DHT22;6539;49.476;8.484;2022-08-21T02:14:22;22.20;99.90
12948;DHT22;6539;49.476;8.484;2022-08-21T02:16:51;22.20;99.90
12948;DHT22;6539;49.476;8.484;2022-08-21T02:19:19;22.20;99.90
12948;DHT22;6539;49.476;8.484;2022-08-21T02:24:18;22.10;99.90
12948;DHT22;6539;49.476;8.484;2022-08-21T02:26:44;22.10;99.90
12948;DHT22;6539;49.476;8.484;2022-08-21T02:29:10;22.10;99.90
12948;DHT22;6539;49.476;8.484;2022-08-21T02:31:36;22.00;99.90
12948;DHT22;6539;49.476;8.484;2022-08-21T02:34:02;22.00;99.90
12948;DHT22;6539;49.476;8.484;2022-08-21T02:36:28;22.00;99.90
12948;DHT22;6539;49.476;8.484;2022-08-21T02:38:56;22.00;99.90
12948;DHT22;6539;49.476;8.484;2022-08-21T02:41:23;21.90;99.90
12948;DHT22;6539;49.476;8.484;2022-08-21T02:43:51;22.30;99.90
12948;DHT22;6539;49.476;8.484;2022-08-21T02:46:19;21.90;99.90
12948;DHT22;6539;49.476;8.484;2022-08-21T02:48:48;21.90;99.90
12948;DHT22;6539;49.476;8.484;2022-08-21T02:51:19;22.00;99.90
12948;DHT22;6539;49.476;8.484;2022-08-21T02:53:48;21.90;99.90
12948;DHT22;6539;49.476;8.484;2022-08-21T02:56:20;21.90;99.90
12948;DHT22;6539;49.476;8.484;2022-08-21T02:58:53;21.90;99.90
12948;DHT22;6539;49.476;8.484;2022-08-21T03:01:19;21.80;99.90
12948;DHT22;6539;49.476;8.484;2022-08-21T03:03:46;21.80;99.90
12948;DHT22;6539;49.476;8.484;2022-08-21T03:06:22;21.80;99.90
12948;DHT22;6539;49.476;8.484;2022-08-21T03:08:48;21.80;99.90
12948;DHT22;6539;49.476;8.484;2022-08-21T03:11:14;21.80;99.90
12948;DHT22;6539;49.476;8.484;2022-08-21T03:13:43;21.80;99.90
12948;DHT22;6539;49.476;8.484;2022-08-21T03:16:11;21.70;99.90
12948;DHT22;6539;49.476;8.484;2022-08-21T03:18:37;21.70;99.90
12948;DHT22;6539;49.476;8.484;2022-08-21T03:21:06;21.70;99.90
12948;DHT22;6539;49.476;8.484;2022-08-21T03:23:32;21.60;99.90
12948;DHT22;6539;49.476;8.484;2022-08-21T03:25:58;21.70;99.90
12948;DHT22;6539;49.476;8.484;2022-08-21T03:28:24;21.70;99.90
12948;DHT22;6539;49.476;8.484;2022-08-21T03:30:51;21.70;99.90
12948;DHT22;6539;49.476;8.484;2022-08-21T03:33:18;21.70;99.90
12948;DHT22;6539;49.476;8.484;2022-08-21T03:35:53;21.80;99.90
12948;DHT22;6539;49.476;8.484;2022-08-21T03:38:30;21.80;99.90
12948;DHT22;6539;49.476;8.484;2022-08-21T03:41:00;21.80;99.90
12948;DHT22;6539;49.476;8.484;2022-08-21T03:43:27;21.70;99.90
12948;DHT22;6539;49.476;8.484;2022-08-21T03:45:57;21.70;99.90
12948;DHT22;6539;49.476;8.484;2022-08-21T03:48:26;21.70;99.90
12948;DHT22;6539;49.476;8.484;2022-08-21T03:50:52;21.70;99.90
12948;DHT22;6539;49.476;8.484;2022-08-21T03:53:21;21.70;99.90
12948;DHT22;6539;49.476;8.484;2022-08-21T03:55:51;21.60;99.90
12948;DHT22;6539;49.476;8.484;2022-08-21T03:58:20;21.60;99.90
12948;DHT22;6539;49.476;8.484;2022-08-21T04:00:56;21.60;99.90
12948;DHT22;6539;49.476;8.484;2022-08-21T04:03:24;21.60;99.90
12948;DHT22;6539;49.476;8.484;2022-08-21T04:08:19;21.50;99.90
12948;DHT22;6539;49.476;8.484;2022-08-21T04:10:52;21.50;99.90
12948;DHT22;6539;49.476;8.484;2022-08-21T04:13:20;21.50;99.90
12948;DHT22;6539;49.476;8.484;2022-08-21T04:15:47;21.40;99.90
12948;DHT22;6539;49.476;8.484;2022-08-21T04:18:18;21.30;99.90
12948;DHT22;6539;49.476;8.484;2022-08-21T04:20:48;21.30;99.90
12948;DHT22;6539;49.476;8.484;2022-08-21T04:23:18;21.30;99.90
12948;DHT22;6539;49.476;8.484;2022-08-21T04:25:50;21.30;99.90
12948;DHT22;6539;49.476;8.484;2022-08-21T04:28:17;21.20;99.90
12948;DHT22;6539;49.476;8.484;2022-08-21T04:30:43;21.20;99.90
12948;DHT22;6539;49.476;8.484;2022-08-21T04:33:12;21.20;99.90
12948;DHT22;6539;49.476;8.484;2022-08-21T04:35:38;21.10;99.90
12948;DHT22;6539;49.476;8.484;2022-08-21T04:38:08;21.10;99.90
12948;DHT22;6539;49.476;8.484;2022-08-21T04:40:36;21.10;99.90
12948;DHT22;6539;49.476;8.484;2022-08-21T04:43:10;21.10;99.90
12948;DHT22;6539;49.476;8.484;2022-08-21T04:45:42;20.90;99.90
12948;DHT22;6539;49.476;8.484;2022-08-21T04:48:14;20.90;99.90
12948;DHT22;6539;49.476;8.484;2022-08-21T04:53:34;20.90;99.90
12948;DHT22;6539;49.476;8.484;2022-08-21T04:56:10;20.90;99.90
12948;DHT22;6539;49.476;8.484;2022-08-21T04:58:39;20.90;99.90
12948;DHT22;6539;49.476;8.484;2022-08-21T05:01:09;20.70;99.90
12948;DHT22;6539;49.476;8.484;2022-08-21T05:03:39;20.50;99.90
12948;DHT22;6539;49.476;8.484;2022-08-21T05:06:08;20.10;99.90
12948;DHT22;6539;49.476;8.484;2022-08-21T05:08:38;20.10;99.90
12948;DHT22;6539;49.476;8.484;2022-08-21T05:11:06;19.80;99.90
12948;DHT22;6539;49.476;8.484;2022-08-21T05:13:34;20.00;99.90
12948;DHT22;6539;49.476;8.484;2022-08-21T05:16:01;20.10;99.90
12948;DHT22;6539;49.476;8.484;2022-08-21T05:18:26;20.10;99.90
12948;DHT22;6539;49.476;8.484;2022-08-21T05:20:52;20.40;99.90
12948;DHT22;6539;49.476;8.484;2022-08-21T05:23:18;18.70;99.90
12948;DHT22;6539;49.476;8.484;2022-08-21T05:25:48;20.20;99.90
12948;DHT22;6539;49.476;8.484;2022-08-21T05:28:19;20.20;99.90
12948;DHT22;6539;49.476;8.484;2022-08-21T05:30:45;20.30;99.90
12948;DHT22;6539;49.476;8.484;2022-08-21T05:33:11;20.40;99.90
12948;DHT22;6539;49.476;8.484;2022-08-21T05:35:38;20.50;99.90
12948;DHT22;6539;49.476;8.484;2022-08-21T05:38:07;20.60;99.90
12948;DHT22;6539;49.476;8.484;2022-08-21T05:40:33;20.80;99.90
12948;DHT22;6539;49.476;8.484;2022-08-21T05:42:59;20.70;99.90
12948;DHT22;6539;49.476;8.484;2022-08-21T05:45:29;20.80;99.90
12948;DHT22;6539;49.476;8.484;2022-08-21T05:48:07;20.80;99.90
12948;DHT22;6539;49.476;8.484;2022-08-21T05:50:36;20.90;99.90
12948;DHT22;6539;49.476;8.484;2022-08-21T05:53:08;21.00;99.90
12948;DHT22;6539;49.476;8.484;2022-08-21T05:55:36;21.40;99.90
12948;DHT22;6539;49.476;8.484;2022-08-21T05:58:08;21.40;99.90
12948;DHT22;6539;49.476;8.484;2022-08-21T06:00:34;21.30;99.90
12948;DHT22;6539;49.476;8.484;2022-08-21T06:03:00;21.60;99.90
12948;DHT22;6539;49.476;8.484;2022-08-21T06:05:28;22.10;99.90
12948;DHT22;6539;49.476;8.484;2022-08-21T06:07:54;22.50;99.90
12948;DHT22;6539;49.476;8.484;2022-08-21T06:10:20;22.90;99.90
12948;DHT22;6539;49.476;8.484;2022-08-21T06:12:46;23.00;99.90
12948;DHT22;6539;49.476;8.484;2022-08-21T06:15:12;23.00;99.90
12948;DHT22;6539;49.476;8.484;2022-08-21T06:17:37;23.30;99.90
12948;DHT22;6539;49.476;8.484;2022-08-21T06:20:04;23.50;99.90
12948;DHT22;6539;49.476;8.484;2022-08-21T06:22:30;23.50;99.90
12948;DHT22;6539;49.476;8.484;2022-08-21T06:24:56;23.60;99.90
12948;DHT22;6539;49.476;8.484;2022-08-21T06:27:22;23.80;99.90
12948;DHT22;6539;49.476;8.484;2022-08-21T06:29:47;23.90;99.90
12948;DHT22;6539;49.476;8.484;2022-08-21T06:32:18;24.10;99.90
12948;DHT22;6539;49.476;8.484;2022-08-21T06:34:46;24.40;99.90
12948;DHT22;6539;49.476;8.484;2022-08-21T06:37:12;24.50;99.90
12948;DHT22;6539;49.476;8.484;2022-08-21T06:39:40;24.90;99.90
12948;DHT22;6539;49.476;8.484;2022-08-21T06:42:06;25.30;99.90
12948;DHT22;6539;49.476;8.484;2022-08-21T06:44:43;25.70;99.90
12948;DHT22;6539;49.476;8.484;2022-08-21T06:47:09;26.00;99.90
12948;DHT22;6539;49.476;8.484;2022-08-21T06:49:36;26.00;99.90
12948;DHT22;6539;49.476;8.484;2022-08-21T06:52:11;26.10;99.90
12948;DHT22;6539;49.476;8.484;2022-08-21T06:54:39;26.30;99.90
12948;DHT22;6539;49.476;8.484;2022-08-21T06:57:05;26.40;99.90
12948;DHT22;6539;49.476;8.484;2022-08-21T06:59:36;26.70;99.90
12948;DHT22;6539;49.476;8.484;2022-08-21T07:02:02;26.70;99.90
12948;DHT22;6539;49.476;8.484;2022-08-21T07:04:28;27.00;99.70
12948;DHT22;6539;49.476;8.484;2022-08-21T07:06:56;27.60;99.20
12948;DHT22;6539;49.476;8.484;2022-08-21T07:09:22;28.00;99.00
12948;DHT22;6539;49.476;8.484;2022-08-21T07:11:53;28.20;98.00
12948;DHT22;6539;49.476;8.484;2022-08-21T07:14:23;28.40;97.40
12948;DHT22;6539;49.476;8.484;2022-08-21T07:16:51;28.40;97.00
12948;DHT22;6539;49.476;8.484;2022-08-21T07:19:17;28.40;96.50
12948;DHT22;6539;49.476;8.484;2022-08-21T07:21:44;28.30;96.90
12948;DHT22;6539;49.476;8.484;2022-08-21T07:24:15;28.50;96.00
12948;DHT22;6539;49.476;8.484;2022-08-21T07:26:41;28.40;95.90
12948;DHT22;6539;49.476;8.484;2022-08-21T07:29:08;28.80;95.60
12948;DHT22;6539;49.476;8.484;2022-08-21T07:31:34;29.00;95.00
12948;DHT22;6539;49.476;8.484;2022-08-21T07:34:02;29.20;94.70
12948;DHT22;6539;49.476;8.484;2022-08-21T07:36:27;29.30;94.30
12948;DHT22;6539;49.476;8.484;2022-08-21T07:38:56;29.20;94.00
12948;DHT22;6539;49.476;8.484;2022-08-21T07:41:27;29.50;94.20
12948;DHT22;6539;49.476;8.484;2022-08-21T07:43:58;29.70;93.30
12948;DHT22;6539;49.476;8.484;2022-08-21T07:46:25;29.50;93.40
12948;DHT22;6539;49.476;8.484;2022-08-21T07:48:52;30.10;92.20
12948;DHT22;6539;49.476;8.484;2022-08-21T07:51:27;30.10;92.50
12948;DHT22;6539;49.476;8.484;2022-08-21T07:53:56;30.10;92.70
12948;DHT22;6539;49.476;8.484;2022-08-21T07:56:24;30.40;92.40
12948;DHT22;6539;49.476;8.484;2022-08-21T07:58:51;30.60;92.10
12948;DHT22;6539;49.476;8.484;2022-08-21T08:01:17;31.20;91.30
12948;DHT22;6539;49.476;8.484;2022-08-21T08:03:44;31.00;90.20
12948;DHT22;6539;49.476;8.484;2022-08-21T08:06:10;31.00;90.60
12948;DHT22;6539;49.476;8.484;2022-08-21T08:08:42;30.70;90.80
12948;DHT22;6539;49.476;8.484;2022-08-21T08:11:09;31.40;90.20
12948;DHT22;6539;49.476;8.484;2022-08-21T08:13:54;31.60;88.20
12948;DHT22;6539;49.476;8.484;2022-08-21T08:16:22;31.50;89.00
12948;DHT22;6539;49.476;8.484;2022-08-21T08:18:48;31.00;89.80
12948;DHT22;6539;49.476;8.484;2022-08-21T08:21:16;31.70;90.00
12948;DHT22;6539;49.476;8.484;2022-08-21T08:23:44;31.80;88.00
12948;DHT22;6539;49.476;8.484;2022-08-21T08:26:10;32.20;86.90
12948;DHT22;6539;49.476;8.484;2022-08-21T08:28:37;32.30;85.80
12948;DHT22;6539;49.476;8.484;2022-08-21T08:31:03;32.00;85.70
12948;DHT22;6539;49.476;8.484;2022-08-21T08:33:32;32.20;86.00
12948;DHT22;6539;49.476;8.484;2022-08-21T08:35:58;31.50;85.30
12948;DHT22;6539;49.476;8.484;2022-08-21T08:38:25;31.50;85.70
12948;DHT22;6539;49.476;8.484;2022-08-21T08:41:19;31.30;87.70
12948;DHT22;6539;49.476;8.484;2022-08-21T08:43:55;31.10;87.50
12948;DHT22;6539;49.476;8.484;2022-08-21T08:46:40;30.90;87.60
12948;DHT22;6539;49.476;8.484;2022-08-21T08:49:17;30.90;89.10
12948;DHT22;6539;49.476;8.484;2022-08-21T08:54:25;31.20;88.50
12948;DHT22;6539;49.476;8.484;2022-08-21T08:57:00;30.30;87.80
12948;DHT22;6539;49.476;8.484;2022-08-21T08:59:39;31.50;86.80
12948;DHT22;6539;49.476;8.484;2022-08-21T09:02:13;31.50;87.60
12948;DHT22;6539;49.476;8.484;2022-08-21T09:04:40;31.60;87.70
12948;DHT22;6539;49.476;8.484;2022-08-21T09:15:57;30.60;88.00
12948;DHT22;6539;49.476;8.484;2022-08-21T09:19:14;30.40;89.80
12948;DHT22;6539;49.476;8.484;2022-08-21T09:27:22;30.80;86.10
12948;DHT22;6539;49.476;8.484;2022-08-21T09:29:53;30.50;87.00
12948;DHT22;6539;49.476;8.484;2022-08-21T09:32:28;30.50;88.20
12948;DHT22;6539;49.476;8.484;2022-08-21T09:43:20;30.90;86.50
12948;DHT22;6539;49.476;8.484;2022-08-21T09:45:49;31.20;84.30
12948;DHT22;6539;49.476;8.484;2022-08-21T09:48:50;31.50;85.00
12948;DHT22;6539;49.476;8.484;2022-08-21T09:51:29;31.80;83.40
12948;DHT22;6539;49.476;8.484;2022-08-21T09:56:50;32.30;81.20
12948;DHT22;6539;49.476;8.484;2022-08-21T09:59:40;32.40;77.60
12948;DHT22;6539;49.476;8.484;2022-08-21T10:02:34;32.50;79.30
12948;DHT22;6539;49.476;8.484;2022-08-21T10:05:06;32.60;75.70
12948;DHT22;6539;49.476;8.484;2022-08-21T10:07:40;32.40;73.90
12948;DHT22;6539;49.476;8.484;2022-08-21T10:10:23;31.10;76.60
12948;DHT22;6539;49.476;8.484;2022-08-21T10:28:00;32.20;75.40
12948;DHT22;6539;49.476;8.484;2022-08-21T10:31:00;32.50;74.80
12948;DHT22;6539;49.476;8.484;2022-08-21T10:36:25;32.70;72.80
12948;DHT22;6539;49.476;8.484;2022-08-21T10:50:19;32.30;72.40
12948;DHT22;6539;49.476;8.484;2022-08-21T10:53:00;32.40;71.60
12948;DHT22;6539;49.476;8.484;2022-08-21T10:55:41;32.30;71.70
12948;DHT22;6539;49.476;8.484;2022-08-21T11:01:41;32.30;71.10
12948;DHT22;6539;49.476;8.484;2022-08-21T11:04:19;32.20;69.50
12948;DHT22;6539;49.476;8.484;2022-08-21T11:06:59;32.30;70.10
12948;DHT22;6539;49.476;8.484;2022-08-21T11:09:30;31.80;71.20
12948;DHT22;6539;49.476;8.484;2022-08-21T11:21:20;32.50;70.70
12948;DHT22;6539;49.476;8.484;2022-08-21T11:26:54;32.60;69.80
12948;DHT22;6539;49.476;8.484;2022-08-21T11:29:33;32.50;69.80
12948;DHT22;6539;49.476;8.484;2022-08-21T11:32:23;32.50;69.70
12948;DHT22;6539;49.476;8.484;2022-08-21T11:35:24;32.40;69.60
12948;DHT22;6539;49.476;8.484;2022-08-21T11:38:01;32.60;68.90
12948;DHT22;6539;49.476;8.484;2022-08-21T11:43:46;32.30;67.80
12948;DHT22;6539;49.476;8.484;2022-08-21T11:46:54;31.90;69.30
12948;DHT22;6539;49.476;8.484;2022-08-21T11:50:14;31.80;69.40
12948;DHT22;6539;49.476;8.484;2022-08-21T11:52:51;32.00;69.30
12948;DHT22;6539;49.476;8.484;2022-08-21T11:55:41;32.30;69.30
12948;DHT22;6539;49.476;8.484;2022-08-21T11:58:22;32.00;66.80
12948;DHT22;6539;49.476;8.484;2022-08-21T12:00:59;31.60;68.00
12948;DHT22;6539;49.476;8.484;2022-08-21T12:03:35;31.30;68.90
12948;DHT22;6539;49.476;8.484;2022-08-21T12:06:12;31.20;69.10
12948;DHT22;6539;49.476;8.484;2022-08-21T12:08:45;31.30;68.40
12948;DHT22;6539;49.476;8.484;2022-08-21T12:11:25;31.20;69.40
12948;DHT22;6539;49.476;8.484;2022-08-21T12:13:58;31.10;69.00
12948;DHT22;6539;49.476;8.484;2022-08-21T12:16:41;31.00;69.40
12948;DHT22;6539;49.476;8.484;2022-08-21T12:19:13;30.70;69.50
12948;DHT22;6539;49.476;8.484;2022-08-21T12:27:18;31.30;69.50
12948;DHT22;6539;49.476;8.484;2022-08-21T12:30:32;31.50;70.30
12948;DHT22;6539;49.476;8.484;2022-08-21T12:33:03;31.70;69.70
12948;DHT22;6539;49.476;8.484;2022-08-21T12:35:42;31.90;69.40
12948;DHT22;6539;49.476;8.484;2022-08-21T12:40:53;32.20;69.00
12948;DHT22;6539;49.476;8.484;2022-08-21T12:43:28;32.20;67.80
12948;DHT22;6539;49.476;8.484;2022-08-21T12:46:00;32.20;68.20
12948;DHT22;6539;49.476;8.484;2022-08-21T12:48:50;32.20;68.70
12948;DHT22;6539;49.476;8.484;2022-08-21T12:51:31;32.20;67.90
12948;DHT22;6539;49.476;8.484;2022-08-21T12:54:23;32.30;67.80
12948;DHT22;6539;49.476;8.484;2022-08-21T12:56:58;32.40;67.30
12948;DHT22;6539;49.476;8.484;2022-08-21T12:59:26;32.50;67.70
12948;DHT22;6539;49.476;8.484;2022-08-21T13:01:56;32.40;66.60
12948;DHT22;6539;49.476;8.484;2022-08-21T13:04:38;32.30;65.90
12948;DHT22;6539;49.476;8.484;2022-08-21T13:07:11;32.40;66.50
12948;DHT22;6539;49.476;8.484;2022-08-21T13:09:48;32.30;65.60
12948;DHT22;6539;49.476;8.484;2022-08-21T13:12:22;32.20;65.80
12948;DHT22;6539;49.476;8.484;2022-08-21T13:14:50;32.20;65.90
12948;DHT22;6539;49.476;8.484;2022-08-21T13:17:19;32.20;65.00
12948;DHT22;6539;49.476;8.484;2022-08-21T13:20:02;32.20;64.40
12948;DHT22;6539;49.476;8.484;2022-08-21T13:22:39;32.30;64.80
12948;DHT22;6539;49.476;8.484;2022-08-21T13:25:13;32.30;65.10
12948;DHT22;6539;49.476;8.484;2022-08-21T13:28:06;32.20;65.00
12948;DHT22;6539;49.476;8.484;2022-08-21T13:30:55;32.20;64.60
12948;DHT22;6539;49.476;8.484;2022-08-21T13:33:26;32.20;64.80
12948;DHT22;6539;49.476;8.484;2022-08-21T13:36:11;32.00;64.80
12948;DHT22;6539;49.476;8.484;2022-08-21T13:38:46;32.00;66.20
12948;DHT22;6539;49.476;8.484;2022-08-21T13:41:21;31.90;65.60
12948;DHT22;6539;49.476;8.484;2022-08-21T13:44:20;31.90;66.10
12948;DHT22;6539;49.476;8.484;2022-08-21T13:46:52;31.90;65.30
12948;DHT22;6539;49.476;8.484;2022-08-21T13:49:34;31.60;65.70
12948;DHT22;6539;49.476;8.484;2022-08-21T13:52:05;31.60;66.10
12948;DHT22;6539;49.476;8.484;2022-08-21T13:54:58;31.60;65.70
12948;DHT22;6539;49.476;8.484;2022-08-21T13:57:31;31.50;66.70
12948;DHT22;6539;49.476;8.484;2022-08-21T14:02:54;31.50;65.10
12948;DHT22;6539;49.476;8.484;2022-08-21T14:05:29;31.30;65.50
12948;DHT22;6539;49.476;8.484;2022-08-21T14:10:48;31.00;66.10
12948;DHT22;6539;49.476;8.484;2022-08-21T14:13:41;30.80;65.50
12948;DHT22;6539;49.476;8.484;2022-08-21T14:16:16;30.80;66.40
12948;DHT22;6539;49.476;8.484;2022-08-21T14:21:41;31.00;66.10
12948;DHT22;6539;49.476;8.484;2022-08-21T14:24:27;30.80;67.40
12948;DHT22;6539;49.476;8.484;2022-08-21T14:26:57;30.70;65.70
12948;DHT22;6539;49.476;8.484;2022-08-21T14:29:36;30.50;65.40
12948;DHT22;6539;49.476;8.484;2022-08-21T14:32:27;30.40;66.10
12948;DHT22;6539;49.476;8.484;2022-08-21T14:34:57;30.40;66.20
12948;DHT22;6539;49.476;8.484;2022-08-21T14:37:24;30.50;66.30
12948;DHT22;6539;49.476;8.484;2022-08-21T14:39:51;30.50;66.10
12948;DHT22;6539;49.476;8.484;2022-08-21T14:42:16;30.60;66.10
12948;DHT22;6539;49.476;8.484;2022-08-21T14:44:43;30.60;67.20
12948;DHT22;6539;49.476;8.484;2022-08-21T14:47:09;30.50;68.20
12948;DHT22;6539;49.476;8.484;2022-08-21T14:49:38;30.50;68.20
12948;DHT22;6539;49.476;8.484;2022-08-21T14:52:09;30.40;69.10
12948;DHT22;6539;49.476;8.484;2022-08-21T14:54:36;30.20;69.30
12948;DHT22;6539;49.476;8.484;2022-08-21T14:57:09;30.10;68.80
12948;DHT22;6539;49.476;8.484;2022-08-21T14:59:37;30.00;67.50
12948;DHT22;6539;49.476;8.484;2022-08-21T15:02:05;30.00;65.70
12948;DHT22;6539;49.476;8.484;2022-08-21T15:04:34;30.00;67.10
12948;DHT22;6539;49.476;8.484;2022-08-21T15:07:05;30.10;67.10
12948;DHT22;6539;49.476;8.484;2022-08-21T15:09:33;30.10;67.10
12948;DHT22;6539;49.476;8.484;2022-08-21T15:12:00;30.20;66.40
12948;DHT22;6539;49.476;8.484;2022-08-21T15:14:30;30.10;68.40
12948;DHT22;6539;49.476;8.484;2022-08-21T15:17:02;30.10;67.60
12948;DHT22;6539;49.476;8.484;2022-08-21T15:19:31;30.00;66.20
12948;DHT22;6539;49.476;8.484;2022-08-21T15:21:57;30.00;66.70
12948;DHT22;6539;49.476;8.484;2022-08-21T15:24:28;30.00;67.10
12948;DHT22;6539;49.476;8.484;2022-08-21T15:27:00;30.00;66.30
12948;DHT22;6539;49.476;8.484;2022-08-21T15:29:29;30.00;66.00
12948;DHT22;6539;49.476;8.484;2022-08-21T15:32:00;30.00;66.60
12948;DHT22;6539;49.476;8.484;2022-08-21T15:34:39;29.90;66.70
12948;DHT22;6539;49.476;8.484;2022-08-21T15:37:05;30.00;68.20
12948;DHT22;6539;49.476;8.484;2022-08-21T15:39:35;29.90;66.40
12948;DHT22;6539;49.476;8.484;2022-08-21T15:42:01;29.90;66.80
12948;DHT22;6539;49.476;8.484;2022-08-21T15:44:30;29.80;66.50
12948;DHT22;6539;49.476;8.484;2022-08-21T15:46:57;29.70;66.00
12948;DHT22;6539;49.476;8.484;2022-08-21T15:49:28;29.70;66.50
12948;DHT22;6539;49.476;8.484;2022-08-21T15:51:56;29.70;68.40
12948;DHT22;6539;49.476;8.484;2022-08-21T15:54:22;29.70;66.60
12948;DHT22;6539;49.476;8.484;2022-08-21T15:56:50;29.70;67.10
12948;DHT22;6539;49.476;8.484;2022-08-21T15:59:21;29.70;67.20
12948;DHT22;6539;49.476;8.484;2022-08-21T16:01:49;29.70;68.50
12948;DHT22;6539;49.476;8.484;2022-08-21T16:04:24;29.70;69.60
12948;DHT22;6539;49.476;8.484;2022-08-21T16:06:53;29.60;69.20
12948;DHT22;6539;49.476;8.484;2022-08-21T16:09:21;29.50;69.40
12948;DHT22;6539;49.476;8.484;2022-08-21T16:11:48;29.40;67.00
12948;DHT22;6539;49.476;8.484;2022-08-21T16:14:17;29.40;67.60
12948;DHT22;6539;49.476;8.484;2022-08-21T16:16:43;29.30;66.50
12948;DHT22;6539;49.476;8.484;2022-08-21T16:19:13;29.30;66.00
12948;DHT22;6539;49.476;8.484;2022-08-21T16:21:39;29.20;66.40
12948;DHT22;6539;49.476;8.484;2022-08-21T16:24:05;29.30;66.80
12948;DHT22;6539;49.476;8.484;2022-08-21T16:26:33;29.20;67.40
12948;DHT22;6539;49.476;8.484;2022-08-21T16:29:03;29.30;68.20
12948;DHT22;6539;49.476;8.484;2022-08-21T16:31:32;29.20;69.30
12948;DHT22;6539;49.476;8.484;2022-08-21T16:34:15;29.40;69.60
12948;DHT22;6539;49.476;8.484;2022-08-21T16:36:45;29.30;69.10
12948;DHT22;6539;49.476;8.484;2022-08-21T16:39:14;29.20;67.30
12948;DHT22;6539;49.476;8.484;2022-08-21T16:41:39;29.20;66.40
12948;DHT22;6539;49.476;8.484;2022-08-21T16:44:06;29.10;66.70
12948;DHT22;6539;49.476;8.484;2022-08-21T16:46:35;29.10;68.10
12948;DHT22;6539;49.476;8.484;2022-08-21T16:49:05;29.10;68.40
12948;DHT22;6539;49.476;8.484;2022-08-21T16:51:31;29.10;68.80
12948;DHT22;6539;49.476;8.484;2022-08-21T16:53:57;29.10;70.20
12948;DHT22;6539;49.476;8.484;2022-08-21T16:56:29;29.00;70.10
12948;DHT22;6539;49.476;8.484;2022-08-21T16:58:56;29.00;69.60
12948;DHT22;6539;49.476;8.484;2022-08-21T17:01:29;28.90;70.50
12948;DHT22;6539;49.476;8.484;2022-08-21T17:03:58;28.90;68.80
12948;DHT22;6539;49.476;8.484;2022-08-21T17:06:27;28.90;67.90
12948;DHT22;6539;49.476;8.484;2022-08-21T17:08:54;28.80;70.50
12948;DHT22;6539;49.476;8.484;2022-08-21T17:11:56;28.80;71.50
12948;DHT22;6539;49.476;8.484;2022-08-21T17:14:24;28.80;69.80
12948;DHT22;6539;49.476;8.484;2022-08-21T17:16:52;28.80;68.10
12948;DHT22;6539;49.476;8.484;2022-08-21T17:19:20;28.70;67.80
12948;DHT22;6539;49.476;8.484;2022-08-21T17:21:48;28.70;69.00
12948;DHT22;6539;49.476;8.484;2022-08-21T17:24:14;28.60;67.90
12948;DHT22;6539;49.476;8.484;2022-08-21T17:26:41;28.60;68.20
12948;DHT22;6539;49.476;8.484;2022-08-21T17:29:13;28.60;69.60
12948;DHT22;6539;49.476;8.484;2022-08-21T17:31:43;28.50;70.10
12948;DHT22;6539;49.476;8.484;2022-08-21T17:34:12;28.40;69.80
12948;DHT22;6539;49.476;8.484;2022-08-21T17:36:37;28.50;70.10
12948;DHT22;6539;49.476;8.484;2022-08-21T17:39:04;28.50;69.00
12948;DHT22;6539;49.476;8.484;2022-08-21T17:41:30;28.50;69.60
12948;DHT22;6539;49.476;8.484;2022-08-21T17:43:56;28.40;68.60
12948;DHT22;6539;49.476;8.484;2022-08-21T17:46:27;28.40;68.70
12948;DHT22;6539;49.476;8.484;2022-08-21T17:48:54;28.40;68.70
12948;DHT22;6539;49.476;8.484;2022-08-21T17:51:21;28.40;68.70
12948;DHT22;6539;49.476;8.484;2022-08-21T17:53:50;28.30;68.70
12948;DHT22;6539;49.476;8.484;2022-08-21T17:56:17;28.30;68.50